createdAt,value
2022-08-08T00:00:53.803Z,16.00
2022-08-08T00:03:31.236Z,13.50
2022-08-08T00:06:06.299Z,12.68
2022-08-08T00:08:49.808Z,14.57
2022-08-08T00:11:20.698Z,14.55
2022-08-08T00:14:16.581Z,22.63
2022-08-08T00:16:50.742Z,17.35
2022-08-08T00:19:28.643Z,17.55
2022-08-08T00:22:03.045Z,10.82
2022-08-08T00:24:44.592Z,19.48
2022-08-08T00:27:16.619Z,19.35
2022-08-08T00:29:53.455Z,14.07
2022-08-08T00:32:34.285Z,17.70
2022-08-08T00:35:36.474Z,22.42
2022-08-08T00:38:04.817Z,12.27
2022-08-08T00:41:11.653Z,16.45
2022-08-08T00:43:59.125Z,17.38
2022-08-08T00:46:57.038Z,17.92
2022-08-08T00:49:27.342Z,12.55
2022-08-08T00:52:06.579Z,20.25
2022-08-08T00:54:37.831Z,14.10
2022-08-08T00:57:57.096Z,13.77
2022-08-08T01:00:37.418Z,20.25
2022-08-08T01:04:02.349Z,19.17
2022-08-08T01:06:27.406Z,13.00
2022-08-08T01:09:34.764Z,20.55
2022-08-08T01:12:15.559Z,17.58
2022-08-08T01:15:09.552Z,19.95
2022-08-08T01:17:55.549Z,17.23
2022-08-08T01:20:58.556Z,20.27
2022-08-08T01:24:06.467Z,21.10
2022-08-08T01:27:10.792Z,16.42
2022-08-08T01:30:18.525Z,21.95
2022-08-08T01:33:28.063Z,13.70
2022-08-08T01:36:25.613Z,22.25
2022-08-08T01:39:00.763Z,18.20
2022-08-08T01:41:47.641Z,15.52
2022-08-08T01:44:21.528Z,18.73
2022-08-08T01:46:58.240Z,17.67
2022-08-08T01:49:38.679Z,26.38
2022-08-08T01:53:01.145Z,18.42
2022-08-08T01:55:45.633Z,27.58
2022-08-08T01:58:13.289Z,22.05
2022-08-08T02:00:58.679Z,25.33
2022-08-08T02:03:57.743Z,18.13
2022-08-08T02:06:58.093Z,23.42
2022-08-08T02:10:03.252Z,17.10
2022-08-08T02:12:55.531Z,23.83
2022-08-08T02:15:38.554Z,24.33
2022-08-08T02:18:27.529Z,32.40
2022-08-08T02:23:54.836Z,21.23
2022-08-08T02:26:31.434Z,18.90
2022-08-08T02:29:06.412Z,22.00
2022-08-08T02:31:54.217Z,26.90
2022-08-08T02:35:07.547Z,23.25
2022-08-08T02:37:52.247Z,22.85
2022-08-08T02:40:50.191Z,27.33
2022-08-08T02:44:37.592Z,28.10
2022-08-08T02:46:26.522Z,25.48
2022-08-08T02:48:57.517Z,28.60
2022-08-08T02:51:56.958Z,25.98
2022-08-08T02:54:50.218Z,20.63
2022-08-08T02:57:24.552Z,24.02
2022-08-08T03:00:26.507Z,23.95
2022-08-08T03:05:01.177Z,21.70
2022-08-08T03:06:24.161Z,21.85
2022-08-08T03:09:28.770Z,27.38
2022-08-08T03:12:05.723Z,30.17
2022-08-08T03:15:58.357Z,32.20
2022-08-08T03:18:07.558Z,24.88
2022-08-08T03:20:52.275Z,22.63
2022-08-08T03:23:20.189Z,18.25
2022-08-08T03:25:50.386Z,26.77
2022-08-08T03:28:24.643Z,19.80
2022-08-08T03:31:22.164Z,23.85
2022-08-08T03:34:05.899Z,23.65
2022-08-08T03:36:48.603Z,24.85
2022-08-08T03:39:22.547Z,26.27
2022-08-08T03:42:27.434Z,27.67
2022-08-08T03:44:53.535Z,29.95
2022-08-08T03:47:22.237Z,22.38
2022-08-08T03:50:00.021Z,30.00
2022-08-08T03:52:36.719Z,23.33
2022-08-08T03:55:55.711Z,29.13
2022-08-08T03:58:36.215Z,23.13
2022-08-08T04:01:23.143Z,35.10
2022-08-08T04:03:57.047Z,30.75
2022-08-08T04:06:29.347Z,23.23
2022-08-08T04:09:08.879Z,40.92
2022-08-08T04:11:58.886Z,26.92
2022-08-08T04:14:36.235Z,18.83
2022-08-08T04:17:15.518Z,32.28
2022-08-08T04:19:56.594Z,31.95
2022-08-08T04:22:29.782Z,25.27
2022-08-08T04:25:04.646Z,22.55
2022-08-08T04:28:03.219Z,23.75
2022-08-08T04:30:25.612Z,28.25
2022-08-08T04:33:12.531Z,20.38
2022-08-08T04:35:51.218Z,26.98
2022-08-08T04:38:21.919Z,28.23
2022-08-08T04:40:57.630Z,30.45
2022-08-08T04:43:31.948Z,28.90
2022-08-08T04:46:18.839Z,31.02
2022-08-08T04:48:46.107Z,30.30
2022-08-08T04:51:17.407Z,29.40
2022-08-08T04:54:39.316Z,23.67
2022-08-08T04:56:52.591Z,31.13
2022-08-08T04:59:30.082Z,27.25
2022-08-08T05:01:59.458Z,33.50
2022-08-08T05:04:28.153Z,36.53
2022-08-08T05:07:01.741Z,26.77
2022-08-08T05:09:29.134Z,26.13
2022-08-08T05:11:57.180Z,25.92
2022-08-08T05:14:31.703Z,33.72
2022-08-08T05:17:01.929Z,22.05
2022-08-08T05:20:10.666Z,25.38
2022-08-08T05:22:32.096Z,43.60
2022-08-08T05:25:07.698Z,25.65
2022-08-08T05:27:41.371Z,26.98
2022-08-08T05:30:28.602Z,28.10
2022-08-08T05:33:03.143Z,36.42
2022-08-08T05:35:39.553Z,36.05
2022-08-08T05:38:30.461Z,33.53
2022-08-08T05:41:11.244Z,29.08
2022-08-08T05:44:03.707Z,32.80
2022-08-08T05:46:36.780Z,30.20
2022-08-08T05:49:10.901Z,36.80
2022-08-08T05:51:48.627Z,33.13
2022-08-08T05:54:27.711Z,27.05
2022-08-08T05:57:12.460Z,36.40
2022-08-08T05:59:59.428Z,27.98
2022-08-08T06:02:53.546Z,28.83
2022-08-08T06:05:35.122Z,29.17
2022-08-08T06:08:33.369Z,22.15
2022-08-08T06:10:58.834Z,25.77
2022-08-08T06:13:47.034Z,36.88
2022-08-08T06:16:16.562Z,20.88
2022-08-08T06:18:54.557Z,38.47
2022-08-08T06:21:28.293Z,24.70
2022-08-08T06:24:13.863Z,26.38
2022-08-08T06:26:58.857Z,27.77
2022-08-08T06:30:00.407Z,29.88
2022-08-08T06:32:37.576Z,27.10
2022-08-08T06:36:07.677Z,30.20
2022-08-08T06:38:09.405Z,27.67
2022-08-08T06:40:54.058Z,27.30
2022-08-08T06:43:30.717Z,28.85
2022-08-08T06:46:12.621Z,33.35
2022-08-08T06:48:40.193Z,33.70
2022-08-08T06:51:17.878Z,26.77
2022-08-08T06:53:51.216Z,28.33
2022-08-08T06:56:30.979Z,35.00
2022-08-08T06:58:58.340Z,25.67
2022-08-08T07:02:26.306Z,26.17
2022-08-08T07:04:38.577Z,24.02
2022-08-08T07:07:13.749Z,21.38
2022-08-08T07:09:59.439Z,23.90
2022-08-08T07:12:33.552Z,25.77
2022-08-08T07:15:41.036Z,19.35
2022-08-08T07:18:35.734Z,24.20
2022-08-08T07:21:04.720Z,22.08
2022-08-08T07:26:35.248Z,21.58
2022-08-08T07:29:05.904Z,22.13
2022-08-08T07:31:50.795Z,22.00
2022-08-08T07:34:26.886Z,23.00
2022-08-08T07:37:12.130Z,22.35
2022-08-08T07:39:56.210Z,23.45
2022-08-08T07:42:34.456Z,20.83
2022-08-08T07:45:02.104Z,17.23
2022-08-08T07:50:13.619Z,17.38
2022-08-08T07:52:47.740Z,14.82
2022-08-08T07:55:28.539Z,17.15
2022-08-08T07:58:05.521Z,10.02
2022-08-08T08:00:56.668Z,15.02
2022-08-08T08:03:41.243Z,17.30
2022-08-08T08:06:33.514Z,11.55
2022-08-08T08:09:26.784Z,8.70
2022-08-08T08:12:06.514Z,11.63
2022-08-08T08:14:45.621Z,7.90
2022-08-08T08:17:22.536Z,11.60
2022-08-08T08:19:50.680Z,9.80
2022-08-08T08:22:33.955Z,9.02
2022-08-08T08:27:47.043Z,10.63
2022-08-08T08:30:14.778Z,11.15
2022-08-08T08:36:20.454Z,6.38
2022-08-08T08:38:22.921Z,6.07
2022-08-08T08:40:57.649Z,7.15
2022-08-08T08:43:28.880Z,7.65
2022-08-08T08:45:57.309Z,6.45
2022-08-08T08:48:31.818Z,8.20
2022-08-08T08:51:01.735Z,8.43
2022-08-08T08:53:56.694Z,7.22
2022-08-08T08:56:27.706Z,8.82
2022-08-08T08:59:03.952Z,10.55
2022-08-08T09:01:34.353Z,4.82
2022-08-08T09:04:31.548Z,6.22
2022-08-08T09:07:02.955Z,6.30
2022-08-08T09:09:48.285Z,6.70
2022-08-08T09:12:23.726Z,3.58
2022-08-08T09:15:00.671Z,3.63
2022-08-08T09:17:41.193Z,3.45
2022-08-08T09:21:58.689Z,4.60
2022-08-08T09:23:10.538Z,2.92
2022-08-08T09:25:54.740Z,4.22
2022-08-08T09:28:37.175Z,5.88
2022-08-08T09:31:14.825Z,9.97
2022-08-08T09:34:15.911Z,4.88
2022-08-08T09:37:57.137Z,5.78
2022-08-08T09:39:51.474Z,3.90
2022-08-08T09:42:29.720Z,3.72
2022-08-08T09:45:04.174Z,3.47
2022-08-08T09:48:11.384Z,3.85
2022-08-08T09:50:36.690Z,5.32
2022-08-08T09:53:32.909Z,4.15
2022-08-08T09:56:07.122Z,3.60
2022-08-08T09:58:46.767Z,4.50
2022-08-08T10:02:02.088Z,6.32
2022-08-08T10:04:35.427Z,3.00
2022-08-08T10:07:07.518Z,5.22
2022-08-08T10:10:00.277Z,4.60
2022-08-08T10:12:53.060Z,2.47
2022-08-08T10:15:29.771Z,3.95
2022-08-08T10:18:06.106Z,3.08
2022-08-08T10:21:08.538Z,7.18
2022-08-08T10:23:58.298Z,3.83
2022-08-08T10:26:58.563Z,4.88
2022-08-08T10:29:56.902Z,7.13
2022-08-08T10:32:52.266Z,4.28
2022-08-08T10:36:19.725Z,2.95
2022-08-08T10:38:22.595Z,1.60
2022-08-08T10:40:55.201Z,5.80
2022-08-08T10:43:36.300Z,4.72
2022-08-08T10:46:03.803Z,8.95
2022-08-08T10:48:56.627Z,3.88
2022-08-08T10:51:31.423Z,4.00
2022-08-08T10:54:14.555Z,2.92
2022-08-08T10:56:43.151Z,5.10
2022-08-08T10:59:14.238Z,4.88
2022-08-08T11:01:54.976Z,3.17
2022-08-08T11:04:29.607Z,3.50
2022-08-08T11:07:13.874Z,9.23
2022-08-08T11:09:50.018Z,2.25
2022-08-08T11:12:23.969Z,4.90
2022-08-08T11:14:57.418Z,5.35
2022-08-08T11:17:59.534Z,2.60
2022-08-08T11:20:27.601Z,5.72
2022-08-08T11:23:05.304Z,4.75
2022-08-08T11:25:53.358Z,6.70
2022-08-08T11:28:32.959Z,3.42
2022-08-08T11:31:05.831Z,5.20
2022-08-08T11:34:03.134Z,5.30
2022-08-08T11:36:39.041Z,2.55
2022-08-08T11:39:17.670Z,4.10
2022-08-08T11:41:48.081Z,5.18
2022-08-08T11:44:29.029Z,4.78
2022-08-08T11:46:58.004Z,8.60
2022-08-08T11:49:34.769Z,4.22
2022-08-08T11:52:03.323Z,3.97
2022-08-08T11:54:34.418Z,1.80
2022-08-08T11:57:17.589Z,3.72
2022-08-08T12:00:05.823Z,1.63
2022-08-08T12:02:52.839Z,3.38
2022-08-08T12:05:22.864Z,2.55
2022-08-08T12:07:59.993Z,5.28
2022-08-08T12:10:28.597Z,2.33
2022-08-08T12:13:09.801Z,4.45
2022-08-08T12:15:42.658Z,3.25
2022-08-08T12:18:24.423Z,4.35
2022-08-08T12:20:54.306Z,1.77
2022-08-08T12:23:59.395Z,2.78
2022-08-08T12:26:36.412Z,2.15
2022-08-08T12:29:40.455Z,1.35
2022-08-08T12:32:17.202Z,2.38
2022-08-08T12:35:17.590Z,3.97
2022-08-08T12:38:01.405Z,2.95
2022-08-08T12:40:56.854Z,2.67
2022-08-08T12:43:32.021Z,3.42
2022-08-08T12:46:06.636Z,4.90
2022-08-08T12:48:38.649Z,2.42
2022-08-08T12:51:13.781Z,2.85
2022-08-08T12:53:59.675Z,4.10
2022-08-08T12:56:40.634Z,3.38
2022-08-08T12:59:15.410Z,2.95
2022-08-08T13:01:49.863Z,3.50
2022-08-08T13:04:24.536Z,5.18
2022-08-08T13:08:02.912Z,3.10
2022-08-08T13:10:17.230Z,3.28
2022-08-08T13:12:52.744Z,2.75
2022-08-08T13:15:22.413Z,4.15
2022-08-08T13:18:08.782Z,5.43
2022-08-08T13:20:59.467Z,5.22
2022-08-08T13:23:37.035Z,1.45
2022-08-08T13:26:18.408Z,4.20
2022-08-08T13:28:49.490Z,2.67
2022-08-08T13:31:23.776Z,5.18
2022-08-08T13:33:59.886Z,3.03
2022-08-08T13:36:40.834Z,2.72
2022-08-08T13:41:53.626Z,3.05
2022-08-08T13:44:33.908Z,4.57
2022-08-08T13:47:07.094Z,2.15
2022-08-08T13:50:39.328Z,3.05
2022-08-08T13:52:37.364Z,2.10
2022-08-08T13:55:13.912Z,2.33
2022-08-08T13:58:07.825Z,4.38
2022-08-08T14:00:55.757Z,4.70
2022-08-08T14:03:53.793Z,0.60
2022-08-08T14:06:33.905Z,2.90
2022-08-08T14:09:25.171Z,3.85
2022-08-08T14:11:57.805Z,2.42
2022-08-08T14:14:34.996Z,4.25
2022-08-08T14:17:22.473Z,2.65
2022-08-08T14:20:06.842Z,1.55
2022-08-08T14:22:45.673Z,3.33
2022-08-08T14:25:18.061Z,2.03
2022-08-08T14:28:00.148Z,2.42
2022-08-08T14:30:34.449Z,1.80
2022-08-08T14:33:12.669Z,3.80
2022-08-08T14:35:57.658Z,1.13
2022-08-08T14:38:52.812Z,3.15
2022-08-08T14:41:53.303Z,1.15
2022-08-08T14:44:24.968Z,5.28
2022-08-08T14:47:00.165Z,3.33
2022-08-08T14:50:02.410Z,2.45
2022-08-08T14:52:27.198Z,2.38
2022-08-08T14:58:03.059Z,3.20
2022-08-08T15:00:22.925Z,2.22
2022-08-08T15:02:58.527Z,2.55
2022-08-08T15:05:53.802Z,4.50
2022-08-08T15:08:33.543Z,7.18
2022-08-08T15:11:18.963Z,6.68
2022-08-08T15:14:01.936Z,4.38
2022-08-08T15:16:37.700Z,2.10
2022-08-08T15:19:09.742Z,2.50
2022-08-08T15:21:44.958Z,4.55
2022-08-08T15:24:15.982Z,5.35
2022-08-08T15:26:46.706Z,5.25
2022-08-08T15:29:26.876Z,3.08
2022-08-08T15:32:19.991Z,5.25
2022-08-08T15:34:55.963Z,3.25
2022-08-08T15:37:25.145Z,2.42
2022-08-08T15:39:53.118Z,5.35
2022-08-08T15:42:36.928Z,5.00
2022-08-08T15:45:07.391Z,2.03
2022-08-08T15:48:04.218Z,3.00
2022-08-08T15:50:57.392Z,4.00
2022-08-08T15:53:49.209Z,2.72
2022-08-08T15:56:20.149Z,2.17
2022-08-08T15:58:54.854Z,4.15
2022-08-08T16:01:22.968Z,3.78
2022-08-08T16:03:51.936Z,3.40
2022-08-08T16:06:35.628Z,5.47
2022-08-08T16:13:08.670Z,4.40
2022-08-08T16:13:10.361Z,3.10
2022-08-08T16:14:53.690Z,4.63
2022-08-08T16:17:57.288Z,5.13
2022-08-08T16:20:20.259Z,2.80
2022-08-08T16:22:54.736Z,2.45
2022-08-08T16:25:24.412Z,4.65
2022-08-08T16:28:34.152Z,6.80
2022-08-08T16:31:07.616Z,5.13
2022-08-08T16:33:42.880Z,2.83
2022-08-08T16:36:33.412Z,4.18
2022-08-08T16:39:10.007Z,5.78
2022-08-08T16:41:54.845Z,4.43
2022-08-08T16:44:47.367Z,2.15
2022-08-08T16:47:40.688Z,1.92
2022-08-08T16:50:20.049Z,3.17
2022-08-08T16:55:01.327Z,6.15
2022-08-08T16:55:55.417Z,4.22
2022-08-08T16:58:26.726Z,2.37
2022-08-08T17:01:00.922Z,3.20
2022-08-08T17:03:58.591Z,5.15
2022-08-08T17:06:39.821Z,3.60
2022-08-08T17:09:14.848Z,3.55
2022-08-08T17:11:54.559Z,3.40
2022-08-08T17:14:27.498Z,3.17
2022-08-08T17:17:41.701Z,2.67
2022-08-08T17:19:57.103Z,3.55
2022-08-08T17:25:47.727Z,3.03
2022-08-08T17:28:35.276Z,4.13
2022-08-08T17:31:39.393Z,4.70
2022-08-08T17:34:48.199Z,4.90
2022-08-08T17:37:03.196Z,3.92
2022-08-08T17:40:04.496Z,2.30
2022-08-08T17:42:26.296Z,6.65
2022-08-08T17:44:59.913Z,4.30
2022-08-08T17:47:37.767Z,5.68
2022-08-08T17:50:15.056Z,2.85
2022-08-08T17:52:43.213Z,2.33
2022-08-08T17:56:04.117Z,3.00
2022-08-08T17:58:09.229Z,3.35
2022-08-08T18:00:47.510Z,7.55
2022-08-08T18:03:22.913Z,3.63
2022-08-08T18:05:57.219Z,5.18
2022-08-08T18:08:40.946Z,2.17
2022-08-08T18:11:29.510Z,4.55
2022-08-08T18:13:56.833Z,4.72
2022-08-08T18:16:30.970Z,2.65
2022-08-08T18:18:58.909Z,10.02
2022-08-08T18:22:00.935Z,2.08
2022-08-08T18:24:30.208Z,4.30
2022-08-08T18:27:17.211Z,2.20
2022-08-08T18:29:45.291Z,6.30
2022-08-08T18:32:22.804Z,4.80
2022-08-08T18:34:58.792Z,4.47
2022-08-08T18:37:34.964Z,6.40
2022-08-08T18:40:15.421Z,3.97
2022-08-08T18:42:50.245Z,2.55
2022-08-08T18:46:00.355Z,4.10
2022-08-08T18:48:18.198Z,4.72
2022-08-08T18:50:50.221Z,4.65
2022-08-08T18:54:00.693Z,5.60
2022-08-08T18:56:22.838Z,5.07
2022-08-08T18:58:56.872Z,3.95
2022-08-08T19:02:25.541Z,6.53
2022-08-08T19:04:19.983Z,3.25
2022-08-08T19:06:55.692Z,4.03
2022-08-08T19:09:49.285Z,6.57
2022-08-08T19:12:18.328Z,8.80
2022-08-08T19:15:01.870Z,4.18
2022-08-08T19:17:48.131Z,5.40
2022-08-08T19:20:26.836Z,4.22
2022-08-08T19:22:54.289Z,4.57
2022-08-08T19:26:00.917Z,8.73
2022-08-08T19:28:18.221Z,7.03
2022-08-08T19:30:51.383Z,6.22
2022-08-08T19:34:04.761Z,2.88
2022-08-08T19:36:33.879Z,5.25
2022-08-08T19:39:09.457Z,2.47
2022-08-08T19:41:37.295Z,2.92
2022-08-08T19:44:12.852Z,5.28
2022-08-08T19:46:46.950Z,5.00
2022-08-08T19:49:14.441Z,5.60
2022-08-08T19:51:43.403Z,3.17
2022-08-08T19:54:19.330Z,6.28
2022-08-08T19:56:48.507Z,3.95
2022-08-08T19:59:22.145Z,7.63
2022-08-08T20:02:02.420Z,8.02
2022-08-08T20:04:31.443Z,4.82
2022-08-08T20:08:29.075Z,4.32
2022-08-08T20:09:56.267Z,5.18
2022-08-08T20:12:32.571Z,3.72
2022-08-08T20:17:46.791Z,4.25
2022-08-08T20:20:18.820Z,4.65
2022-08-08T20:22:56.383Z,7.10
2022-08-08T20:25:24.621Z,6.00
2022-08-08T20:28:06.750Z,8.35
2022-08-08T20:30:56.018Z,6.65
2022-08-08T20:34:27.185Z,5.95
2022-08-08T20:36:23.983Z,4.97
2022-08-08T20:39:00.849Z,3.53
2022-08-08T20:41:28.214Z,4.55
2022-08-08T20:46:31.128Z,5.90
2022-08-08T20:49:00.025Z,8.32
2022-08-08T20:51:32.455Z,7.32
2022-08-08T20:54:14.281Z,6.70
2022-08-08T20:57:16.795Z,6.30
2022-08-08T20:59:55.879Z,5.13
2022-08-08T21:02:25.722Z,9.30
2022-08-08T21:05:03.984Z,9.77
2022-08-08T21:08:00.720Z,4.15
2022-08-08T21:10:28.348Z,6.70
2022-08-08T21:12:57.156Z,9.10
2022-08-08T21:18:19.142Z,6.18
2022-08-08T21:20:50.706Z,8.80
2022-08-08T21:24:01.905Z,8.10
2022-08-08T21:26:27.320Z,11.63
2022-08-08T21:29:07.983Z,9.20
2022-08-08T21:31:39.202Z,10.70
2022-08-08T21:34:40.132Z,10.52
2022-08-08T21:37:28.764Z,9.57
2022-08-08T21:40:21.068Z,6.88
2022-08-08T21:42:58.305Z,7.95
2022-08-08T21:45:44.502Z,9.93
2022-08-08T21:48:35.322Z,8.63
2022-08-08T21:54:26.202Z,7.20
2022-08-08T21:54:36.544Z,5.55
2022-08-08T21:57:07.876Z,4.80
2022-08-08T22:00:01.439Z,8.13
2022-08-08T22:02:32.020Z,6.43
2022-08-08T22:05:01.736Z,8.65
2022-08-08T22:07:40.882Z,10.73
2022-08-08T22:10:18.126Z,6.73
2022-08-08T22:13:17.067Z,7.55
2022-08-08T22:15:59.391Z,8.40
2022-08-08T22:18:35.325Z,5.70
2022-08-08T22:21:13.779Z,9.02
2022-08-08T22:23:51.238Z,7.85
2022-08-08T22:26:28.684Z,9.82
2022-08-08T22:29:13.452Z,11.07
2022-08-08T22:31:58.336Z,10.75
2022-08-08T22:34:39.261Z,8.88
2022-08-08T22:37:14.796Z,11.57
2022-08-08T22:40:02.332Z,7.00
2022-08-08T22:42:37.026Z,7.15
2022-08-08T22:45:13.996Z,5.65
2022-08-08T22:47:46.884Z,8.00
2022-08-08T22:50:27.130Z,11.27
2022-08-08T22:53:22.343Z,10.30
2022-08-08T22:55:58.220Z,12.68
2022-08-08T22:58:28.566Z,8.30
2022-08-08T23:01:16.591Z,8.35
2022-08-08T23:03:53.518Z,6.72
2022-08-08T23:06:29.098Z,8.25
2022-08-08T23:08:58.515Z,9.10
2022-08-08T23:11:31.115Z,5.80
2022-08-08T23:14:25.652Z,10.27
2022-08-08T23:16:59.185Z,11.00
2022-08-08T23:19:44.615Z,9.73
2022-08-08T23:22:16.467Z,6.78
2022-08-08T23:24:51.014Z,5.50
2022-08-08T23:27:39.071Z,8.13
2022-08-08T23:30:13.013Z,12.68
2022-08-08T23:32:45.059Z,8.68
2022-08-08T23:35:34.352Z,8.48
2022-08-08T23:38:20.331Z,7.38
2022-08-08T23:40:54.893Z,8.18
2022-08-08T23:43:22.346Z,12.10
2022-08-08T23:49:07.321Z,8.13
2022-08-08T23:49:18.390Z,10.57
2022-08-08T23:52:05.882Z,8.23
2022-08-08T23:54:43.848Z,6.22
2022-08-08T23:57:39.330Z,4.75
